Fitzgerald, Georgia
Current Conditions -  °F | °C
As of 1:15 AM on Monday 26 Jan 2015 (Local Time) from KFZG Reporting Station
Overcast Overcast  
Wind Chill: 53°   Ceiling: 7000
Heat Index: 53°   Visibility: 10mi
Dew Point: 49°   Wind: 6mph
Humidity: 86%   Direction: 240°WSW
Pressure: 29.83"   Gusts: NA
Location:  31.72°N, 83.25°W
Report Text: KFZG 260615Z AUTO 24005KT 10SM OVC070 12/09 A2983 RMK AO2 T01150093
Loading
Personal Weather Stations






























Interactive Weather Map New forecast layout! Learn more

10-Day Weather Forecast

Advertisements
Track Severe Weather on mobile